KSDY/SDY METAR and TAF weather

Enter ICAO airport designator
Station Type Date Time Source
KSDY METAR 2021/10/22 19:56 UTC NOAA

KSDY 221956Z AUTO 07006KT 10SM CLR 12/03 A2996 RMK AO2 SLP160 T01220033


Station Type Date Time Source
KSDY Decoded METAR 2021/10/22 19:56 UTC NOAA

Sidney-Richland, MT, United States (KSDY) 47-42N 104-12W
Oct 22, 2021 - 03:56 PM EDT / 2021.10.22 1956 UTC
Wind: from the ENE (070 degrees) at 7 MPH (6 KT):0
Visibility: 10 mile(s):0
Sky conditions: clear
Temperature: 54.0 F (12.2 C)
Dew Point: 37.9 F (3.3 C)
Relative Humidity: 54%
Pressure (altimeter): 29.96 in. Hg (1014 hPa)
ob: KSDY 221956Z AUTO 07006KT 10SM CLR 12/03 A2996 RMK AO2 SLP160 T01220033
cycle: 20

Station Type Date Time Source
KSDY TAF 2021/10/22 18:24 UTC NOAA

TAF KSDY 221722Z 2218/2318 09007KT P6SM SKC
FM222100 10013G21KT P6SM FEW200
FM230900 11012KT P6SM BKN100 WS020/15035KT
FM231100 11013G20KT P6SM VCSH OVC070

Example: see airport list